Latest Weather Observations for Condobolin Airport

IDN60801

Issued at 2:32 pm EDT Sunday 17 February 2019 (issued every 10 minutes, with the page automatically refreshed every 10 minutes)

About weather observations | Map of weather stations | Latest weather observations for NSW | Other Formats
Station Details ID: 050137 Name: CONDOBOLIN AIRPORT AWS Lat: -33.07 Lon: 147.21 Height: 192.6 m
Data from the previous 72 hours. | See also: Recent months at Condobolin Airport
Date/Time
EDT
Temp
°C
App
Temp
°C
Dew
Point
°C
Rel
Hum
%
Delta-T
°C
Wind Press
QNH
hPa
Press
MSL
hPa
Rain since
9am
mm
Dir  Spd
km/h
Gust
km/h
Spd
kts
Gust
kts
17/02:30pm 35.4 32.4 7.5 18 15.7 NE 13 24 7 13 1011.2 1010.1 0.0
17/02:00pm 34.7 31.7 6.1 17 15.7 ENE 11 20 6 11 1011.7 1010.6 0.0
17/01:30pm 34.0 30.7 6.3 18 15.2 N 13 26 7 14 1012.1 1011.0 0.0
17/01:00pm 33.8 31.6 6.2 18 15.1 E 7 15 4 8 1012.4 1011.4 0.0
17/12:30pm 33.7 30.5 6.9 19 14.8 NE 13 20 7 11 1012.8 1011.8 0.0
17/12:00pm 32.7 29.7 7.5 21 14.0 N 13 24 7 13 1013.2 1012.2 0.0
17/11:30am 32.4 29.2 9.9 25 12.9 N 17 24 9 13 1013.6 1012.6 0.0
17/11:00am 31.1 27.6 11.0 29 11.7 N 20 28 11 15 1013.9 1012.9 0.0
17/10:30am 30.2 26.6 11.7 32 10.8 N 22 32 12 17 1014.1 1013.0 0.0
17/10:00am 29.3 24.8 11.4 33 10.4 NNE 26 32 14 17 1014.1 1013.0 0.0
17/09:30am 28.5 24.9 12.0 36 9.6 NNE 22 32 12 17 1014.1 1013.0 0.0
17/09:00am 26.9 22.9 11.8 39 8.7 NNE 24 33 13 18 1013.9 1012.9 0.0
17/08:30am 25.4 22.2 11.9 43 7.8 NNE 20 28 11 15 1013.9 1012.9 0.0
17/08:00am 23.9 20.9 12.5 49 6.6 NNE 20 26 11 14 1013.9 1012.9 0.0
17/07:30am 22.6 19.7 12.3 52 5.9 NNE 19 24 10 13 1013.6 1012.6 0.0
17/07:00am 21.1 19.5 11.7 55 5.3 NE 11 15 6 8 1013.4 1012.4 0.0
17/06:30am 19.0 17.9 10.0 56 4.8 ENE 6 9 3 5 1013.1 1012.1 0.0
17/06:00am 17.6 16.8 9.8 60 4.2 NE 4 7 2 4 1012.8 1011.8 0.0
17/05:30am 21.2 19.0 9.4 47 6.4 NE 11 15 6 8 1012.5 1011.5 0.0
17/05:00am 20.0 17.2 8.7 48 6.0 NE 13 15 7 8 1012.4 1011.4 0.0
17/04:30am 19.9 17.5 8.6 48 6.0 NE 11 13 6 7 1012.5 1011.5 0.0
17/04:00am 18.5 17.2 10.1 58 4.5 NE 7 9 4 5 1012.4 1011.4 0.0
17/03:30am 18.8 17.5 9.8 56 4.8 NNE 7 9 4 5 1012.6 1011.6 0.0
17/03:00am 18.5 17.2 9.8 57 4.7 NE 7 7 4 4 1012.7 1011.7 0.0
17/02:30am 18.8 17.7 10.1 57 4.7 NE 6 6 3 3 1012.9 1011.9 0.0
17/02:00am 19.3 18.0 10.0 55 5.0 NE 7 7 4 4 1013.1 1012.1 0.0
17/01:30am 20.1 19.0 9.9 52 5.5 ENE 6 7 3 4 1013.5 1012.5 0.0
17/01:00am 20.2 18.8 9.7 51 5.7 ENE 7 9 4 5 1013.9 1012.9 0.0
17/12:30am 20.5 19.4 10.0 51 5.7 NE 6 9 3 5 1014.2 1013.1 0.0
17/12:00am 21.8 21.9 10.0 47 6.5 CALM 0 0 0 0 1014.4 1013.3 0.0
 
Date/Time
EDT
Temp
°C
App
Temp
°C
Dew
Point
°C
Rel
Hum
%
Delta-T
°C
Wind Press
QNH
hPa
Press
MSL
hPa
Rain since
9am
mm
Dir  Spd
km/h
Gust
km/h
Spd
kts
Gust
kts
16/11:30pm 22.0 20.9 9.9 46 6.6 NE 6 7 3 4 1014.5 1013.4 0.0
16/11:00pm 21.9 20.8 9.8 46 6.6 NE 6 7 3 4 1014.7 1013.6 0.0
16/10:30pm 23.9 23.3 9.1 39 8.1 ENE 2 6 1 3 1014.9 1013.8 0.0
16/10:00pm 25.2 24.4 8.2 34 9.2 E 2 6 1 3 1014.9 1013.8 0.0
16/09:30pm 26.0 24.4 8.0 32 9.7 ESE 6 7 3 4 1014.7 1013.6 0.0
16/09:00pm 27.5 25.6 7.4 28 10.8 ESE 7 9 4 5 1014.6 1013.5 0.0
16/08:30pm 28.9 26.2 7.5 26 11.6 ESE 11 13 6 7 1014.4 1013.3 0.0
16/08:00pm 30.0 27.0 7.8 25 12.2 ESE 13 17 7 9 1014.1 1013.0 0.0
16/07:30pm 30.9 27.7 6.7 22 13.1 ESE 13 17 7 9 1013.8 1012.8 0.0
16/07:00pm 31.0 28.0 7.5 23 12.9 SE 13 17 7 9 1013.9 1012.9 0.0
16/06:30pm 31.6 30.4 6.6 21 13.6 SE 2 7 1 4 1013.8 1012.8 0.0
16/06:00pm 31.5 29.0 6.5 21 13.6 NE 9 17 5 9 1014.2 1013.1 0.0
16/05:30pm 31.9 29.5 6.9 21 13.7 SSE 9 19 5 10 1014.4 1013.3 0.0
16/05:00pm 31.7 29.4 7.4 22 13.4 ENE 9 17 5 9 1014.6 1013.5 0.0
16/04:30pm 31.9 30.0 7.5 22 13.5 S 7 11 4 6 1014.8 1013.7 0.0
16/04:00pm 31.3 29.6 7.7 23 13.0 ENE 6 13 3 7 1015.2 1014.1 0.0
16/03:30pm 31.7 28.8 8.0 23 13.2 ENE 13 20 7 11 1015.5 1014.4 0.0
16/03:00pm 32.0 28.5 8.9 24 13.0 E 17 24 9 13 1016.0 1014.9 0.0
16/02:30pm 31.1 28.9 9.3 26 12.3 ENE 11 20 6 11 1016.5 1015.4 0.0
16/02:00pm 30.5 27.5 9.4 27 11.9 NNE 15 26 8 14 1017.0 1016.0 0.0
16/01:30pm 30.1 26.9 10.1 29 11.4 NNE 17 24 9 13 1017.3 1016.3 0.0
16/01:00pm 29.1 26.8 10.3 31 10.7 NE 13 20 7 11 1017.9 1016.9 0.0
16/12:30pm 28.2 25.4 9.9 32 10.3 NNE 15 28 8 15 1018.5 1017.5 0.0
16/12:00pm 27.9 24.4 10.1 33 10.0 NNE 19 30 10 16 1018.7 1017.7 0.0
16/11:30am 26.6 22.9 10.3 36 9.2 NNE 20 30 11 16 1019.1 1018.1 0.0
16/11:00am 26.8 23.2 10.5 36 9.2 NE 20 30 11 16 1019.3 1018.3 0.0
16/10:30am 25.4 21.9 10.8 40 8.2 NNE 20 30 11 16 1019.7 1018.6 0.0
16/10:00am 24.1 20.1 10.4 42 7.6 NE 22 30 12 16 1019.8 1018.7 0.0
16/09:30am 22.9 18.7 11.0 47 6.7 NE 24 33 13 18 1019.9 1018.8 0.0
16/09:00am 21.9 18.1 11.0 50 6.1 NE 22 30 12 16 1020.1 1019.0 0.0
16/08:30am 21.2 17.8 11.2 53 5.6 ENE 20 30 11 16 1020.0 1018.9 0.0
16/08:00am 21.1 19.0 11.2 53 5.5 NE 13 24 7 13 1019.8 1018.7 0.0
16/07:30am 20.1 18.5 11.6 58 4.7 ENE 11 15 6 8 1019.4 1018.4 0.0
16/07:00am 18.8 17.5 11.4 62 4.1 E 9 9 5 5 1019.1 1018.1 0.0
16/06:30am 19.3 17.2 11.3 60 4.4 E 13 15 7 8 1018.6 1017.6 0.0
16/06:00am 19.9 17.8 11.1 57 4.9 ENE 13 19 7 10 1018.2 1017.2 0.0
16/05:30am 20.4 17.9 11.1 55 5.2 E 15 20 8 11 1018.1 1017.1 0.0
16/05:00am 20.9 18.4 11.0 53 5.5 E 15 20 8 11 1018.0 1017.0 0.0
16/04:30am 21.2 18.3 11.0 52 5.7 E 17 22 9 12 1017.6 1016.6 0.0
16/04:00am 21.7 18.7 10.8 50 6.0 E 17 20 9 11 1017.6 1016.6 0.0
16/03:30am 22.2 19.1 10.4 47 6.5 E 17 20 9 11 1017.8 1016.8 0.0
16/03:00am 22.7 19.6 10.2 45 6.9 E 17 20 9 11 1017.9 1016.9 0.0
16/02:30am 23.2 19.9 9.6 42 7.4 E 17 22 9 12 1017.9 1016.9 0.0
16/02:00am 23.7 20.6 8.9 39 8.0 E 15 20 8 11 1017.8 1016.8 0.0
16/01:30am 25.1 21.7 9.0 36 8.8 ENE 17 22 9 12 1017.8 1016.8 0.0
16/01:00am 26.0 21.9 8.5 33 9.5 ENE 20 33 11 18 1018.0 1017.0 0.0
16/12:30am 21.7 19.5 9.3 45 6.7 NE 11 13 6 7 1018.1 1017.1 0.0
16/12:00am 21.5 19.2 7.3 40 7.4 ENE 9 13 5 7 1018.0 1017.0 0.0
 
Date/Time
EDT
Temp
°C
App
Temp
°C
Dew
Point
°C
Rel
Hum
%
Delta-T
°C
Wind Press
QNH
hPa
Press
MSL
hPa
Rain since
9am
mm
Dir  Spd
km/h
Gust
km/h
Spd
kts
Gust
kts
15/11:30pm 22.3 21.9 8.1 40 7.5 CALM 0 0 0 0 1017.8 1016.8 0.0
15/11:00pm 22.7 22.2 8.0 39 7.8 CALM 0 0 0 0 1018.0 1017.0 0.0
15/10:30pm 23.5 22.7 8.0 37 8.3 NW 2 6 1 3 1018.0 1017.0 0.0
15/10:00pm 24.2 23.6 7.4 34 8.9 CALM 0 0 0 0 1018.0 1017.0 0.0
15/09:30pm 25.2 24.4 6.4 30 9.8 CALM 0 0 0 0 1017.8 1016.8 0.0
15/09:00pm 27.0 25.8 4.7 24 11.4 CALM 0 0 0 0 1017.5 1016.5 0.0
15/08:30pm 29.1 26.5 3.1 19 13.1 SSE 6 7 3 4 1017.4 1016.4 0.0
15/08:00pm 29.8 26.6 2.9 18 13.6 SSE 9 11 5 6 1017.1 1016.1 0.0
15/07:30pm 31.4 27.6 1.7 15 14.9 SSE 11 15 6 8 1016.9 1015.9 0.0
15/07:00pm 31.8 28.0 2.0 15 15.0 SSE 11 17 6 9 1016.8 1015.7 0.0
15/06:30pm 32.0 27.5 2.1 15 15.1 SE 15 22 8 12 1016.8 1015.7 0.0
15/06:00pm 32.7 29.3 1.7 14 15.6 ESE 9 17 5 9 1016.8 1015.7 0.0
15/05:30pm 32.9 29.3 2.9 15 15.5 SSE 11 17 6 9 1016.9 1015.9 0.0
15/05:00pm 32.6 29.7 2.6 15 15.3 N 7 22 4 12 1017.1 1016.1 0.0
15/04:30pm 32.4 29.3 3.4 16 15.0 ESE 9 15 5 8 1017.4 1016.4 0.0
15/04:00pm 32.4 28.5 3.4 16 15.0 ESE 13 24 7 13 1017.6 1016.6 0.0
15/03:30pm 32.3 28.0 3.3 16 15.0 NNE 15 32 8 17 1018.1 1017.1 0.0
15/03:00pm 31.4 27.5 3.4 17 14.4 ESE 13 26 7 14 1018.6 1017.6 0.0
15/02:30pm 31.2 28.6 4.1 18 14.1 SSE 7 17 4 9 1019.2 1018.2 0.0
15/02:00pm 30.3 27.4 4.9 20 13.3 ENE 9 20 5 11 1019.7 1018.6 0.0
15/01:30pm 30.3 26.6 6.2 22 12.9 E 15 24 8 13 1020.1 1019.0 0.0
15/01:00pm 28.8 25.0 5.6 23 12.2 ENE 15 24 8 13 1020.4 1019.3 0.0
15/12:30pm 29.2 25.6 6.6 24 12.1 NE 15 24 8 13 1020.9 1019.8 0.0
15/12:00pm 27.8 24.7 7.1 27 11.1 NE 13 22 7 12 1021.4 1020.3 0.0
15/11:30am 27.0 23.4 6.9 28 10.7 ENE 15 26 8 14 1021.8 1020.8 0.0
15/11:00am 26.4 22.8 8.4 32 9.8 ENE 17 24 9 13 1022.1 1021.1 0.0
15/10:30am 25.4 21.8 8.4 34 9.2 ENE 17 24 9 13 1022.2 1021.2 0.0
15/10:00am 23.8 22.1 9.8 41 7.7 NNE 9 15 5 8 1022.2 1021.2 0.0
15/09:30am 23.4 22.3 10.1 43 7.3 E 6 11 3 6 1022.2 1021.2 0.0
15/09:00am 22.1 19.9 7.9 40 7.5 ESE 9 11 5 6 1021.9 1020.9 0.0
15/08:30am 20.6 19.0 4.6 35 7.9 E 2 7 1 4 1021.6 1020.6 0.0
15/08:00am 18.9 17.7 4.7 39 6.9 CALM 0 0 0 0 1021.2 1020.1 0.0
15/07:30am 17.5 16.4 5.1 44 6.0 CALM 0 6 0 3 1020.7 1019.6 0.0
15/07:00am 16.2 13.7 4.9 47 5.4 E 7 7 4 4 1020.3 1019.2 0.0
15/06:30am 16.1 14.7 5.4 49 5.2 ENE 2 6 1 3 1020.0 1018.9 0.0
15/06:00am 16.8 14.4 4.2 43 5.9 ENE 6 7 3 4 1019.4 1018.4 0.0
15/05:30am 16.3 15.2 5.3 48 5.3 CALM 0 0 0 0 1019.0 1018.0 0.0
15/05:00am 16.5 15.4 4.9 46 5.5 CALM 0 6 0 3 1019.1 1018.1 0.0
15/04:30am 16.9 14.3 3.2 40 6.4 ESE 6 6 3 3 1019.2 1018.2 0.0
15/04:00am 17.5 14.7 3.0 38 6.7 SE 7 9 4 5 1019.1 1018.1 0.0
15/03:30am 17.8 14.6 3.3 38 6.8 E 9 11 5 6 1019.0 1018.0 0.0
15/03:00am 19.0 16.0 2.0 32 7.8 SE 7 11 4 6 1018.8 1017.8 0.0
15/02:30am 19.5 16.1 1.9 31 8.1 SSE 9 11 5 6 1018.9 1017.9 0.0
15/02:00am 19.7 16.7 1.7 30 8.3 SSE 7 11 4 6 1018.9 1017.9 0.0
15/01:30am 20.7 16.9 1.6 28 8.8 SSE 11 15 6 8 1018.9 1017.9 0.0
15/01:00am 20.4 17.4 1.8 29 8.6 SSE 7 9 4 5 1018.9 1017.9 0.0
15/12:30am 20.5 17.0 1.4 28 8.8 SSW 9 11 5 6 1019.0 1018.0 0.0
15/12:00am 20.8 17.4 1.6 28 8.9 S 9 11 5 6 1018.8 1017.8 0.0
 
Date/Time
EDT
Temp
°C
App
Temp
°C
Dew
Point
°C
Rel
Hum
%
Delta-T
°C
Wind Press
QNH
hPa
Press
MSL
hPa
Rain since
9am
mm
Dir  Spd
km/h
Gust
km/h
Spd
kts
Gust
kts
14/11:30pm 20.6 19.0 2.4 30 8.6 CALM 0 6 0 3 1018.7 1017.7 0.0
14/11:00pm 19.9 17.6 4.8 37 7.4 WSW 6 7 3 4 1018.8 1017.8 0.0
14/10:30pm 19.9 17.0 4.8 37 7.4 WSW 9 11 5 6 1018.6 1017.6 0.0
14/10:00pm 21.3 18.7 3.0 30 8.7 SSW 6 7 3 4 1018.4 1017.4 0.0
14/09:30pm 23.0 20.2 1.9 25 10.0 SSE 6 7 3 4 1018.0 1017.0 0.0
14/09:00pm 23.8 20.2 0.8 22 10.7 S 9 11 5 6 1017.5 1016.5 0.0
14/08:30pm 25.5 21.8 0.2 19 11.8 SSE 9 13 5 7 1017.2 1016.2 0.0
14/08:00pm 26.7 21.8 -0.3 17 12.6 SSE 15 20 8 11 1016.8 1015.7 0.0
14/07:30pm 27.8 22.8 -1.2 15 13.5 SSE 15 24 8 13 1016.7 1015.6 0.0
14/07:00pm 28.4 23.0 -1.6 14 13.9 SSE 17 22 9 12 1016.5 1015.4 0.0
14/06:30pm 28.8 24.3 -0.4 15 13.8 S 13 20 7 11 1016.4 1015.3 0.0
14/06:00pm 28.6 22.9 -0.5 15 13.7 S 19 28 10 15 1016.3 1015.2 0.0
14/05:30pm 29.0 24.3 0.7 16 13.7 SE 15 24 8 13 1016.3 1015.2 0.0
14/05:00pm 28.4 23.8 -0.7 15 13.7 SSE 13 26 7 14 1016.4 1015.3 0.0
14/04:30pm 28.8 24.9 1.3 17 13.4 SSE 11 17 6 9 1016.5 1015.4 0.0
14/04:00pm 28.1 23.1 1.6 18 12.9 SSE 17 26 9 14 1016.7 1015.6 0.0
14/03:30pm 28.0 23.0 1.5 18 12.9 SE 17 26 9 14 1016.9 1015.9 0.0
14/03:00pm 27.2 22.7 2.3 20 12.2 S 15 28 8 15 1017.2 1016.2 0.0

Other Formats:

Comma delimited format used in spreadsheet applications
http://www.bom.gov.au/fwo/IDN60801/IDN60801.95708.axf

JavaScript Object Notation format (JSON) in row-major order
http://www.bom.gov.au/fwo/IDN60801/IDN60801.95708.json